QFA380 YSSY-KLAX
Flight info
| Callsign | QFA380 |
|---|---|
| Flight time | N/A |
| Altitude | 35000 |
| Route | DIPSO G595 SOTKI DCT UBLIN A579 TANIL/N0478F370 DCT NN B581 WOOBY DCT 02N160W/N0477F390 11N150W DCT CAMOS DCT 19N140W 26N130W/N0466F410 DCT FICKY GOATZ2 |
| Aircraft | A388/J-SADE2E3FGHIJ3J4J5M1RWXY/LB1D1 |
Departure
| Time | N/A |
|---|---|
| Airport | Sydney Kingsford Smith International Airport (YSSY) |
Arrival
| Time | 2026-05-07 08:14 |
|---|---|
| Airport | Los Angeles International Airport (KLAX) |
| Time | Latitude | Longitude | Altitude | Speed | Heading |
|---|---|---|---|---|---|
| 2026-05-07 05:35 | 22.05427 | -135.86677 | 35184 ft | 526 kts | 49° |
| 2026-05-07 05:36 | 22.09892 | -135.80402 | 35186 ft | 526 kts | 49° |
| 2026-05-07 05:36 | 22.14338 | -135.74146 | 35199 ft | 525 kts | 49° |
| 2026-05-07 05:37 | 22.18784 | -135.67885 | 35188 ft | 525 kts | 49° |
| 2026-05-07 05:37 | 22.23214 | -135.61637 | 35187 ft | 525 kts | 49° |
| 2026-05-07 05:38 | 22.27647 | -135.55380 | 35199 ft | 524 kts | 49° |
| 2026-05-07 05:38 | 22.32045 | -135.49163 | 35193 ft | 524 kts | 49° |
| 2026-05-07 05:39 | 22.36459 | -135.42916 | 35193 ft | 523 kts | 49° |
| 2026-05-07 05:39 | 22.40866 | -135.36672 | 35181 ft | 523 kts | 49° |
| 2026-05-07 05:40 | 22.45277 | -135.30415 | 35200 ft | 522 kts | 49° |
| 2026-05-07 05:40 | 22.49671 | -135.24176 | 35192 ft | 522 kts | 49° |
| 2026-05-07 05:41 | 22.54061 | -135.17934 | 35196 ft | 521 kts | 49° |
| 2026-05-07 05:41 | 22.58449 | -135.11687 | 35202 ft | 521 kts | 49° |
| 2026-05-07 05:42 | 22.62824 | -135.05452 | 35203 ft | 520 kts | 49° |
| 2026-05-07 05:42 | 22.67194 | -134.99216 | 35200 ft | 519 kts | 49° |
| 2026-05-07 05:43 | 22.71556 | -134.92984 | 35197 ft | 519 kts | 49° |
| 2026-05-07 05:43 | 22.75908 | -134.86760 | 35194 ft | 518 kts | 49° |
| 2026-05-07 05:44 | 22.80254 | -134.80537 | 35189 ft | 518 kts | 49° |
| 2026-05-07 05:44 | 22.84597 | -134.74311 | 35187 ft | 517 kts | 49° |
| 2026-05-07 05:45 | 22.88933 | -134.68086 | 35187 ft | 517 kts | 49° |
| 2026-05-07 05:45 | 22.93265 | -134.61861 | 35184 ft | 517 kts | 49° |
| 2026-05-07 05:46 | 22.97599 | -134.55625 | 35194 ft | 517 kts | 49° |
| 2026-05-07 05:46 | 23.01892 | -134.49440 | 35192 ft | 517 kts | 49° |
| 2026-05-07 05:47 | 23.06213 | -134.43207 | 35191 ft | 517 kts | 49° |
| 2026-05-07 05:47 | 23.10539 | -134.36961 | 35200 ft | 517 kts | 50° |
| 2026-05-07 05:48 | 23.14853 | -134.30724 | 35197 ft | 516 kts | 50° |
| 2026-05-07 05:48 | 23.19164 | -134.24483 | 35201 ft | 516 kts | 50° |
| 2026-05-07 05:49 | 23.23477 | -134.18232 | 35201 ft | 516 kts | 50° |
| 2026-05-07 05:49 | 23.27782 | -134.11985 | 35200 ft | 516 kts | 50° |
| 2026-05-07 05:50 | 23.32088 | -134.05730 | 35210 ft | 516 kts | 50° |
| 2026-05-07 05:50 | 23.36384 | -133.99480 | 35224 ft | 515 kts | 50° |
| 2026-05-07 05:51 | 23.39978 | -133.94246 | 35212 ft | 515 kts | 50° |
| 2026-05-07 05:51 | 23.44955 | -133.86989 | 35217 ft | 515 kts | 50° |
| 2026-05-07 05:52 | 23.48542 | -133.81753 | 35223 ft | 514 kts | 50° |
| 2026-05-07 05:52 | 23.52815 | -133.75508 | 35212 ft | 514 kts | 50° |
| 2026-05-07 05:53 | 23.57055 | -133.69303 | 35209 ft | 513 kts | 50° |
| 2026-05-07 05:53 | 23.61310 | -133.63069 | 35217 ft | 513 kts | 50° |
| 2026-05-07 05:54 | 23.65568 | -133.56823 | 35207 ft | 512 kts | 50° |
| 2026-05-07 05:54 | 23.69815 | -133.50585 | 35209 ft | 512 kts | 50° |
| 2026-05-07 05:55 | 23.74061 | -133.44342 | 35219 ft | 512 kts | 50° |
| 2026-05-07 05:55 | 23.78296 | -133.38106 | 35208 ft | 512 kts | 50° |
| 2026-05-07 05:56 | 23.82534 | -133.31858 | 35221 ft | 511 kts | 50° |
| 2026-05-07 05:56 | 23.86758 | -133.25622 | 35217 ft | 511 kts | 50° |
| 2026-05-07 05:57 | 23.90980 | -133.19382 | 35219 ft | 510 kts | 50° |
| 2026-05-07 05:57 | 23.95194 | -133.13148 | 35217 ft | 510 kts | 50° |
| 2026-05-07 05:58 | 23.99403 | -133.06911 | 35216 ft | 510 kts | 50° |
| 2026-05-07 05:58 | 24.03610 | -133.00669 | 35218 ft | 509 kts | 50° |
| 2026-05-07 05:59 | 24.07809 | -132.94433 | 35215 ft | 509 kts | 50° |
| 2026-05-07 05:59 | 24.11980 | -132.88231 | 35213 ft | 509 kts | 50° |
| 2026-05-07 06:00 | 24.16177 | -132.81980 | 35215 ft | 509 kts | 50° |
| 2026-05-07 06:00 | 24.20369 | -132.75732 | 35216 ft | 509 kts | 50° |
| 2026-05-07 06:01 | 24.24558 | -132.69478 | 35218 ft | 509 kts | 50° |
| 2026-05-07 06:01 | 24.28744 | -132.63220 | 35225 ft | 509 kts | 50° |
| 2026-05-07 06:02 | 24.32931 | -132.56954 | 35226 ft | 509 kts | 50° |
| 2026-05-07 06:02 | 24.37111 | -132.50691 | 35226 ft | 509 kts | 50° |
| 2026-05-07 06:03 | 24.41287 | -132.44425 | 35226 ft | 509 kts | 50° |
| 2026-05-07 06:03 | 24.45442 | -132.38182 | 35229 ft | 509 kts | 50° |
| 2026-05-07 06:04 | 24.49612 | -132.31908 | 35233 ft | 509 kts | 50° |
| 2026-05-07 06:04 | 24.53776 | -132.25638 | 35231 ft | 508 kts | 50° |
| 2026-05-07 06:05 | 24.57940 | -132.19358 | 35237 ft | 508 kts | 50° |
| 2026-05-07 06:05 | 24.62100 | -132.13075 | 35233 ft | 508 kts | 50° |
| 2026-05-07 06:06 | 24.66258 | -132.06788 | 35231 ft | 508 kts | 51° |
| 2026-05-07 06:06 | 24.70413 | -132.00498 | 35236 ft | 508 kts | 51° |
| 2026-05-07 06:07 | 24.74564 | -131.94204 | 35242 ft | 508 kts | 51° |
| 2026-05-07 06:07 | 24.78711 | -131.87909 | 35258 ft | 508 kts | 51° |
| 2026-05-07 06:08 | 24.82854 | -131.81611 | 35244 ft | 507 kts | 51° |
| 2026-05-07 06:08 | 24.86958 | -131.75366 | 35247 ft | 507 kts | 51° |
| 2026-05-07 06:09 | 24.91079 | -131.69086 | 35248 ft | 506 kts | 51° |
| 2026-05-07 06:09 | 24.95203 | -131.62793 | 35243 ft | 506 kts | 51° |
| 2026-05-07 06:10 | 24.99317 | -131.56506 | 35236 ft | 505 kts | 51° |
| 2026-05-07 06:10 | 25.03426 | -131.50221 | 35241 ft | 505 kts | 51° |
| 2026-05-07 06:11 | 25.07530 | -131.43933 | 35241 ft | 505 kts | 51° |
| 2026-05-07 06:11 | 25.11630 | -131.37645 | 35235 ft | 505 kts | 51° |
| 2026-05-07 06:12 | 25.15728 | -131.31350 | 35239 ft | 504 kts | 51° |
| 2026-05-07 06:12 | 25.19814 | -131.25066 | 35237 ft | 504 kts | 51° |
| 2026-05-07 06:13 | 25.23907 | -131.18763 | 35236 ft | 504 kts | 51° |
| 2026-05-07 06:13 | 25.27983 | -131.12477 | 35259 ft | 503 kts | 51° |
| 2026-05-07 06:14 | 25.32061 | -131.06181 | 35250 ft | 503 kts | 51° |
| 2026-05-07 06:14 | 25.36124 | -130.99898 | 35248 ft | 502 kts | 51° |
| 2026-05-07 06:15 | 25.40185 | -130.93611 | 35246 ft | 502 kts | 51° |
| 2026-05-07 06:15 | 25.44235 | -130.87332 | 35250 ft | 501 kts | 51° |
| 2026-05-07 06:16 | 25.48284 | -130.81047 | 35245 ft | 501 kts | 51° |
| 2026-05-07 06:16 | 25.52293 | -130.74815 | 35244 ft | 500 kts | 51° |
| 2026-05-07 06:17 | 25.56326 | -130.68538 | 35238 ft | 500 kts | 51° |
| 2026-05-07 06:17 | 25.60358 | -130.62254 | 35238 ft | 500 kts | 51° |
| 2026-05-07 06:18 | 25.64382 | -130.55973 | 35236 ft | 500 kts | 51° |
| 2026-05-07 06:18 | 25.68405 | -130.49686 | 35236 ft | 500 kts | 51° |
| 2026-05-07 06:19 | 25.72424 | -130.43400 | 35244 ft | 500 kts | 51° |
| 2026-05-07 06:19 | 25.76442 | -130.37109 | 35256 ft | 500 kts | 51° |
| 2026-05-07 06:20 | 25.80458 | -130.30814 | 35252 ft | 500 kts | 51° |
| 2026-05-07 06:20 | 25.84471 | -130.24516 | 35254 ft | 499 kts | 51° |
| 2026-05-07 06:21 | 25.88478 | -130.18219 | 35251 ft | 499 kts | 51° |
| 2026-05-07 06:21 | 25.92484 | -130.11914 | 35250 ft | 499 kts | 51° |
| 2026-05-07 06:22 | 25.96489 | -130.05601 | 35251 ft | 499 kts | 51° |
| 2026-05-07 06:22 | 26.02564 | -129.96215 | 35252 ft | 497 kts | 48° |
| 2026-05-07 06:23 | 26.06892 | -129.90215 | 35254 ft | 497 kts | 47° |
| 2026-05-07 06:23 | 26.11173 | -129.84256 | 35256 ft | 497 kts | 47° |
| 2026-05-07 06:24 | 26.15459 | -129.78231 | 35258 ft | 497 kts | 47° |
| 2026-05-07 06:24 | 26.19743 | -129.72188 | 35257 ft | 497 kts | 47° |
| 2026-05-07 06:25 | 26.24022 | -129.66143 | 35269 ft | 496 kts | 47° |
| 2026-05-07 06:25 | 26.28295 | -129.60100 | 35266 ft | 496 kts | 47° |
| 2026-05-07 06:26 | 26.32558 | -129.54063 | 35280 ft | 496 kts | 47° |
| 2026-05-07 06:26 | 26.36814 | -129.48023 | 35275 ft | 495 kts | 47° |
| 2026-05-07 06:27 | 26.41072 | -129.41972 | 35269 ft | 495 kts | 47° |
| 2026-05-07 06:27 | 26.45316 | -129.35932 | 35260 ft | 495 kts | 47° |
| 2026-05-07 06:28 | 26.49557 | -129.29888 | 35270 ft | 495 kts | 47° |
| 2026-05-07 06:28 | 26.53794 | -129.23843 | 35264 ft | 494 kts | 47° |
| 2026-05-07 06:29 | 26.58026 | -129.17794 | 35263 ft | 494 kts | 47° |
| 2026-05-07 06:29 | 26.62232 | -129.11777 | 35276 ft | 494 kts | 47° |
| 2026-05-07 06:30 | 26.66455 | -129.05726 | 35287 ft | 494 kts | 47° |
| 2026-05-07 06:30 | 26.70669 | -128.99681 | 35286 ft | 493 kts | 47° |
| 2026-05-07 06:31 | 26.74879 | -128.93632 | 35277 ft | 492 kts | 47° |
| 2026-05-07 06:31 | 26.79075 | -128.87596 | 35285 ft | 492 kts | 47° |
| 2026-05-07 06:32 | 26.83269 | -128.81555 | 35274 ft | 491 kts | 47° |
| 2026-05-07 06:32 | 26.87455 | -128.75517 | 35269 ft | 490 kts | 47° |
| 2026-05-07 06:33 | 26.91632 | -128.69484 | 35268 ft | 490 kts | 47° |
| 2026-05-07 06:33 | 26.95805 | -128.63449 | 35269 ft | 490 kts | 48° |
| 2026-05-07 06:34 | 26.99975 | -128.57410 | 35264 ft | 489 kts | 48° |
| 2026-05-07 06:34 | 27.04137 | -128.51373 | 35259 ft | 489 kts | 48° |
| 2026-05-07 06:35 | 27.08299 | -128.45328 | 35261 ft | 489 kts | 48° |
| 2026-05-07 06:35 | 27.12455 | -128.39286 | 35266 ft | 489 kts | 48° |
| 2026-05-07 06:36 | 27.16603 | -128.33245 | 35266 ft | 488 kts | 48° |
| 2026-05-07 06:36 | 27.20750 | -128.27197 | 35263 ft | 488 kts | 48° |
| 2026-05-07 06:37 | 27.24891 | -128.21152 | 35267 ft | 488 kts | 48° |
| 2026-05-07 06:37 | 27.29029 | -128.15103 | 35261 ft | 488 kts | 49° |
| 2026-05-07 06:38 | 27.33167 | -128.09043 | 35264 ft | 488 kts | 49° |
| 2026-05-07 06:38 | 27.37297 | -128.02986 | 35266 ft | 488 kts | 49° |
| 2026-05-07 06:39 | 27.41395 | -127.96970 | 35265 ft | 488 kts | 49° |
| 2026-05-07 06:39 | 27.45518 | -127.90908 | 35267 ft | 488 kts | 49° |
| 2026-05-07 06:40 | 27.49640 | -127.84839 | 35268 ft | 488 kts | 49° |
| 2026-05-07 06:40 | 27.53060 | -127.79798 | 35264 ft | 487 kts | 49° |
| 2026-05-07 06:41 | 27.57175 | -127.73723 | 35266 ft | 487 kts | 49° |
| 2026-05-07 06:41 | 27.61286 | -127.67646 | 35274 ft | 487 kts | 50° |
| 2026-05-07 06:42 | 27.65393 | -127.61568 | 35271 ft | 487 kts | 50° |
| 2026-05-07 06:42 | 27.69496 | -127.55486 | 35273 ft | 487 kts | 50° |
| 2026-05-07 06:43 | 27.73632 | -127.49351 | 35273 ft | 502 kts | 50° |
| 2026-05-07 06:43 | 27.77865 | -127.43060 | 35270 ft | 503 kts | 50° |
| 2026-05-07 06:44 | 27.82097 | -127.36757 | 35271 ft | 503 kts | 50° |
| 2026-05-07 06:44 | 27.86322 | -127.30458 | 35269 ft | 503 kts | 50° |
| 2026-05-07 06:45 | 27.90546 | -127.24150 | 35268 ft | 503 kts | 50° |
| 2026-05-07 06:45 | 27.94739 | -127.17882 | 35271 ft | 503 kts | 50° |
| 2026-05-07 06:46 | 27.98983 | -127.11527 | 35272 ft | 503 kts | 50° |
| 2026-05-07 06:46 | 28.03181 | -127.05231 | 35274 ft | 502 kts | 50° |
| 2026-05-07 06:47 | 28.07354 | -126.98965 | 35279 ft | 502 kts | 50° |
| 2026-05-07 06:47 | 28.11550 | -126.92655 | 35268 ft | 501 kts | 50° |
| 2026-05-07 06:48 | 28.15746 | -126.86335 | 35268 ft | 501 kts | 50° |
| 2026-05-07 06:48 | 28.19934 | -126.80018 | 35271 ft | 501 kts | 50° |
| 2026-05-07 06:49 | 28.24119 | -126.73697 | 35276 ft | 502 kts | 50° |
| 2026-05-07 06:49 | 28.28304 | -126.67365 | 35267 ft | 501 kts | 50° |
| 2026-05-07 06:50 | 28.32485 | -126.61031 | 35270 ft | 501 kts | 50° |
| 2026-05-07 06:50 | 28.36661 | -126.54694 | 35268 ft | 502 kts | 50° |
| 2026-05-07 06:51 | 28.40841 | -126.48342 | 35273 ft | 502 kts | 51° |
| 2026-05-07 06:51 | 28.45012 | -126.41995 | 35266 ft | 502 kts | 51° |
| 2026-05-07 06:52 | 28.49180 | -126.35642 | 35265 ft | 501 kts | 51° |
| 2026-05-07 06:52 | 28.53341 | -126.29291 | 35265 ft | 501 kts | 51° |
| 2026-05-07 06:53 | 28.57501 | -126.22931 | 35266 ft | 501 kts | 51° |
| 2026-05-07 06:53 | 28.61660 | -126.16565 | 35266 ft | 501 kts | 51° |
| 2026-05-07 06:54 | 28.65808 | -126.10204 | 35266 ft | 501 kts | 51° |
| 2026-05-07 06:54 | 28.69958 | -126.03831 | 35264 ft | 501 kts | 51° |
| 2026-05-07 06:55 | 28.74109 | -125.97447 | 35265 ft | 501 kts | 51° |
| 2026-05-07 06:55 | 28.78252 | -125.91065 | 35265 ft | 501 kts | 51° |
| 2026-05-07 06:56 | 28.82393 | -125.84677 | 35262 ft | 501 kts | 51° |
| 2026-05-07 06:56 | 28.86504 | -125.78327 | 35261 ft | 501 kts | 51° |
| 2026-05-07 06:57 | 28.90640 | -125.71927 | 35268 ft | 500 kts | 52° |
| 2026-05-07 06:57 | 28.94766 | -125.65533 | 35265 ft | 500 kts | 52° |
| 2026-05-07 06:58 | 28.98887 | -125.59136 | 35261 ft | 500 kts | 52° |
| 2026-05-07 06:58 | 29.03010 | -125.52728 | 35261 ft | 500 kts | 52° |
| 2026-05-07 06:59 | 29.07119 | -125.46331 | 35263 ft | 500 kts | 52° |
| 2026-05-07 06:59 | 29.11232 | -125.39917 | 35264 ft | 500 kts | 52° |
| 2026-05-07 07:00 | 29.15321 | -125.33532 | 35263 ft | 500 kts | 52° |
| 2026-05-07 07:00 | 29.19430 | -125.27106 | 35262 ft | 500 kts | 52° |
| 2026-05-07 07:01 | 29.23532 | -125.20680 | 35259 ft | 500 kts | 52° |
| 2026-05-07 07:01 | 29.27630 | -125.14250 | 35260 ft | 500 kts | 52° |
| 2026-05-07 07:02 | 29.31737 | -125.07797 | 35259 ft | 500 kts | 52° |
| 2026-05-07 07:02 | 29.35829 | -125.01357 | 35258 ft | 499 kts | 52° |
| 2026-05-07 07:03 | 29.39898 | -124.94943 | 35257 ft | 498 kts | 53° |
| 2026-05-07 07:03 | 29.43966 | -124.88521 | 35252 ft | 497 kts | 53° |
| 2026-05-07 07:04 | 29.48032 | -124.82093 | 35253 ft | 498 kts | 53° |
| 2026-05-07 07:04 | 29.52094 | -124.75659 | 35255 ft | 498 kts | 53° |
| 2026-05-07 07:05 | 29.56153 | -124.69222 | 35250 ft | 497 kts | 53° |
| 2026-05-07 07:05 | 29.60204 | -124.62786 | 35248 ft | 497 kts | 53° |
| 2026-05-07 07:06 | 29.64234 | -124.56373 | 35662 ft | 489 kts | 53° |
| 2026-05-07 07:06 | 29.66213 | -124.53218 | 36530 ft | 483 kts | 53° |
| 2026-05-07 07:06 | 29.68171 | -124.50097 | 37155 ft | 481 kts | 53° |
| 2026-05-07 07:07 | 29.70100 | -124.47019 | 37728 ft | 481 kts | 53° |
| 2026-05-07 07:07 | 29.72052 | -124.43904 | 38348 ft | 479 kts | 53° |
| 2026-05-07 07:07 | 29.73996 | -124.40798 | 38900 ft | 479 kts | 53° |
| 2026-05-07 07:07 | 29.75939 | -124.37692 | 39350 ft | 479 kts | 53° |
| 2026-05-07 07:08 | 29.77885 | -124.34577 | 39771 ft | 479 kts | 53° |
| 2026-05-07 07:08 | 29.79833 | -124.31458 | 40185 ft | 479 kts | 52° |
| 2026-05-07 07:08 | 29.81771 | -124.28352 | 40651 ft | 478 kts | 53° |
| 2026-05-07 07:08 | 29.83713 | -124.25237 | 41037 ft | 479 kts | 52° |
| 2026-05-07 07:09 | 29.85667 | -124.22102 | 41227 ft | 484 kts | 52° |
| 2026-05-07 07:09 | 29.87612 | -124.18976 | 41244 ft | 476 kts | 53° |
| 2026-05-07 07:09 | 29.91444 | -124.12812 | 41244 ft | 475 kts | 53° |
| 2026-05-07 07:10 | 29.95299 | -124.06605 | 41244 ft | 476 kts | 53° |
| 2026-05-07 07:10 | 29.99149 | -124.00394 | 41239 ft | 476 kts | 53° |
| 2026-05-07 07:11 | 30.03030 | -123.94125 | 41243 ft | 489 kts | 53° |
| 2026-05-07 07:11 | 30.07016 | -123.87677 | 41238 ft | 491 kts | 53° |
| 2026-05-07 07:12 | 30.10980 | -123.81249 | 41238 ft | 492 kts | 53° |
| 2026-05-07 07:12 | 30.14948 | -123.74808 | 41236 ft | 492 kts | 53° |
| 2026-05-07 07:13 | 30.18917 | -123.68355 | 41243 ft | 492 kts | 53° |
| 2026-05-07 07:13 | 30.22876 | -123.61907 | 41239 ft | 491 kts | 53° |
| 2026-05-07 07:14 | 30.26824 | -123.55467 | 41237 ft | 491 kts | 53° |
| 2026-05-07 07:14 | 30.30766 | -123.49027 | 41235 ft | 491 kts | 53° |
| 2026-05-07 07:15 | 30.34704 | -123.42584 | 41233 ft | 490 kts | 53° |
| 2026-05-07 07:15 | 30.38643 | -123.36127 | 41229 ft | 490 kts | 53° |
| 2026-05-07 07:16 | 30.42575 | -123.29673 | 41228 ft | 490 kts | 53° |
| 2026-05-07 07:16 | 30.46505 | -123.23211 | 41227 ft | 490 kts | 53° |
| 2026-05-07 07:17 | 30.50401 | -123.16793 | 41228 ft | 491 kts | 53° |
| 2026-05-07 07:17 | 30.54323 | -123.10323 | 41224 ft | 490 kts | 54° |
| 2026-05-07 07:18 | 30.58238 | -123.03855 | 41224 ft | 490 kts | 54° |
| 2026-05-07 07:18 | 30.62147 | -122.97385 | 41229 ft | 490 kts | 54° |
| 2026-05-07 07:19 | 30.66056 | -122.90906 | 41217 ft | 490 kts | 54° |
| 2026-05-07 07:19 | 30.69956 | -122.84430 | 41222 ft | 488 kts | 54° |
| 2026-05-07 07:20 | 30.73841 | -122.77968 | 41213 ft | 488 kts | 54° |
| 2026-05-07 07:20 | 30.77729 | -122.71492 | 41218 ft | 488 kts | 54° |
| 2026-05-07 07:21 | 30.81609 | -122.65017 | 41223 ft | 487 kts | 54° |
| 2026-05-07 07:21 | 30.85478 | -122.58552 | 41220 ft | 487 kts | 54° |
| 2026-05-07 07:22 | 30.89342 | -122.52083 | 41218 ft | 486 kts | 54° |
| 2026-05-07 07:22 | 30.93173 | -122.45658 | 41216 ft | 486 kts | 54° |
| 2026-05-07 07:23 | 30.97030 | -122.39180 | 41205 ft | 486 kts | 54° |
| 2026-05-07 07:23 | 31.00907 | -122.32659 | 41211 ft | 488 kts | 54° |
| 2026-05-07 07:24 | 31.04744 | -122.26193 | 41201 ft | 488 kts | 54° |
| 2026-05-07 07:24 | 31.08606 | -122.19674 | 41207 ft | 489 kts | 54° |
| 2026-05-07 07:25 | 31.14376 | -122.09914 | 41207 ft | 486 kts | 54° |
| 2026-05-07 07:26 | 31.18208 | -122.03420 | 41208 ft | 487 kts | 54° |
| 2026-05-07 07:26 | 31.22050 | -121.96897 | 41199 ft | 487 kts | 54° |
| 2026-05-07 07:27 | 31.25894 | -121.90362 | 41203 ft | 489 kts | 54° |
| 2026-05-07 07:27 | 31.29729 | -121.83829 | 41198 ft | 486 kts | 54° |
| 2026-05-07 07:28 | 31.33558 | -121.77298 | 41195 ft | 487 kts | 54° |
| 2026-05-07 07:28 | 31.37387 | -121.70760 | 41192 ft | 486 kts | 54° |
| 2026-05-07 07:29 | 31.41206 | -121.64230 | 41196 ft | 488 kts | 54° |
| 2026-05-07 07:29 | 31.44383 | -121.58790 | 41188 ft | 487 kts | 54° |
| 2026-05-07 07:30 | 31.48199 | -121.52245 | 41191 ft | 486 kts | 54° |
| 2026-05-07 07:30 | 31.52010 | -121.45699 | 41181 ft | 486 kts | 54° |
| 2026-05-07 07:31 | 31.55526 | -121.38939 | 41179 ft | 486 kts | 60° |
| 2026-05-07 07:31 | 31.58345 | -121.31715 | 41179 ft | 488 kts | 67° |
| 2026-05-07 07:32 | 31.60898 | -121.24328 | 41195 ft | 490 kts | 66° |
| 2026-05-07 07:32 | 31.63460 | -121.16986 | 41177 ft | 489 kts | 66° |
| 2026-05-07 07:33 | 31.66008 | -121.09626 | 41176 ft | 487 kts | 66° |
| 2026-05-07 07:33 | 31.68558 | -121.02230 | 41178 ft | 488 kts | 66° |
| 2026-05-07 07:34 | 31.71092 | -120.94858 | 41180 ft | 487 kts | 66° |
| 2026-05-07 07:34 | 31.73626 | -120.87472 | 41173 ft | 486 kts | 66° |
| 2026-05-07 07:35 | 31.76154 | -120.80087 | 41175 ft | 488 kts | 66° |
| 2026-05-07 07:35 | 31.78679 | -120.72695 | 41171 ft | 486 kts | 66° |
| 2026-05-07 07:35 | 31.79919 | -120.69057 | 41171 ft | 475 kts | 66° |
| 2026-05-07 07:36 | 31.81135 | -120.65484 | 41172 ft | 468 kts | 66° |
| 2026-05-07 07:36 | 31.83557 | -120.58367 | 41167 ft | 470 kts | 66° |
| 2026-05-07 07:37 | 31.85982 | -120.51223 | 41165 ft | 470 kts | 66° |
| 2026-05-07 07:37 | 31.88401 | -120.44077 | 41164 ft | 470 kts | 66° |
| 2026-05-07 07:38 | 31.90816 | -120.36930 | 41160 ft | 470 kts | 66° |
| 2026-05-07 07:38 | 31.93453 | -120.29971 | 41158 ft | 467 kts | 59° |
| 2026-05-07 07:39 | 31.97010 | -120.23603 | 41155 ft | 465 kts | 50° |
| 2026-05-07 07:39 | 32.01311 | -120.17934 | 41146 ft | 463 kts | 45° |
| 2026-05-07 07:40 | 32.05707 | -120.12378 | 41141 ft | 463 kts | 46° |
| 2026-05-07 07:40 | 32.10097 | -120.06818 | 41143 ft | 463 kts | 46° |
| 2026-05-07 07:41 | 32.14487 | -120.01259 | 41139 ft | 463 kts | 46° |
| 2026-05-07 07:41 | 32.18879 | -119.95693 | 41139 ft | 463 kts | 46° |
| 2026-05-07 07:42 | 32.23263 | -119.90128 | 41135 ft | 463 kts | 46° |
| 2026-05-07 07:42 | 32.27648 | -119.84553 | 41136 ft | 463 kts | 46° |
| 2026-05-07 07:43 | 32.32056 | -119.78940 | 41137 ft | 463 kts | 46° |
| 2026-05-07 07:43 | 32.36409 | -119.73388 | 41137 ft | 463 kts | 46° |
| 2026-05-07 07:44 | 32.40783 | -119.67802 | 41136 ft | 463 kts | 46° |
| 2026-05-07 07:44 | 32.45152 | -119.62212 | 41077 ft | 461 kts | 46° |
| 2026-05-07 07:44 | 32.47325 | -119.59429 | 40610 ft | 460 kts | 46° |
| 2026-05-07 07:45 | 32.49500 | -119.56643 | 39904 ft | 461 kts | 46° |
| 2026-05-07 07:45 | 32.51681 | -119.53844 | 39080 ft | 463 kts | 46° |
| 2026-05-07 07:45 | 32.53866 | -119.51039 | 38279 ft | 462 kts | 46° |
| 2026-05-07 07:45 | 32.56049 | -119.48235 | 37244 ft | 464 kts | 46° |
| 2026-05-07 07:46 | 32.58237 | -119.45422 | 36175 ft | 466 kts | 46° |
| 2026-05-07 07:46 | 32.60447 | -119.42579 | 35080 ft | 470 kts | 46° |
| 2026-05-07 07:46 | 32.62662 | -119.39727 | 33990 ft | 472 kts | 46° |
| 2026-05-07 07:46 | 32.64893 | -119.36853 | 32877 ft | 473 kts | 46° |
| 2026-05-07 07:47 | 32.67114 | -119.33988 | 31932 ft | 470 kts | 46° |
| 2026-05-07 07:47 | 32.69309 | -119.31154 | 31328 ft | 461 kts | 46° |
| 2026-05-07 07:47 | 32.71449 | -119.28387 | 30922 ft | 449 kts | 46° |
| 2026-05-07 07:47 | 32.73546 | -119.25675 | 30277 ft | 443 kts | 46° |
| 2026-05-07 07:48 | 32.75620 | -119.22993 | 29610 ft | 438 kts | 46° |
| 2026-05-07 07:48 | 32.77660 | -119.20352 | 28985 ft | 430 kts | 46° |
| 2026-05-07 07:48 | 32.79668 | -119.17749 | 28380 ft | 423 kts | 46° |
| 2026-05-07 07:48 | 32.81643 | -119.15189 | 27783 ft | 417 kts | 46° |
| 2026-05-07 07:49 | 32.83586 | -119.12668 | 27177 ft | 411 kts | 46° |
| 2026-05-07 07:49 | 32.85505 | -119.10176 | 26596 ft | 406 kts | 46° |
| 2026-05-07 07:49 | 32.87404 | -119.07709 | 26001 ft | 401 kts | 46° |
| 2026-05-07 07:49 | 32.89276 | -119.05275 | 25411 ft | 397 kts | 46° |
| 2026-05-07 07:50 | 32.91128 | -119.02866 | 24846 ft | 392 kts | 46° |
| 2026-05-07 07:50 | 32.92959 | -119.00483 | 24265 ft | 389 kts | 46° |
| 2026-05-07 07:50 | 32.94777 | -118.98115 | 23689 ft | 385 kts | 46° |
| 2026-05-07 07:50 | 32.96578 | -118.95767 | 23056 ft | 381 kts | 46° |
| 2026-05-07 07:51 | 32.98353 | -118.93451 | 22490 ft | 376 kts | 46° |
| 2026-05-07 07:51 | 33.00103 | -118.91168 | 21935 ft | 371 kts | 46° |
| 2026-05-07 07:51 | 33.01832 | -118.88909 | 21365 ft | 367 kts | 46° |
| 2026-05-07 07:51 | 33.03544 | -118.86672 | 20813 ft | 363 kts | 46° |
| 2026-05-07 07:52 | 33.05235 | -118.84461 | 20258 ft | 360 kts | 46° |
| 2026-05-07 07:52 | 33.06911 | -118.82268 | 19710 ft | 357 kts | 46° |
| 2026-05-07 07:52 | 33.08572 | -118.80094 | 19169 ft | 354 kts | 46° |
| 2026-05-07 07:52 | 33.10230 | -118.77922 | 18616 ft | 352 kts | 46° |
| 2026-05-07 07:53 | 33.11875 | -118.75765 | 18016 ft | 350 kts | 46° |
| 2026-05-07 07:53 | 33.13503 | -118.73632 | 17498 ft | 346 kts | 46° |
| 2026-05-07 07:53 | 33.15120 | -118.71509 | 16693 ft | 349 kts | 47° |
| 2026-05-07 07:53 | 33.16756 | -118.69362 | 16194 ft | 348 kts | 47° |
| 2026-05-07 07:54 | 33.18387 | -118.67220 | 16030 ft | 349 kts | 47° |
| 2026-05-07 07:54 | 33.19994 | -118.65063 | 15916 ft | 346 kts | 49° |
| 2026-05-07 07:54 | 33.21534 | -118.62892 | 15831 ft | 339 kts | 49° |
| 2026-05-07 07:54 | 33.23046 | -118.60738 | 15733 ft | 338 kts | 49° |
| 2026-05-07 07:55 | 33.24558 | -118.58590 | 15631 ft | 338 kts | 49° |
| 2026-05-07 07:55 | 33.26053 | -118.56477 | 15562 ft | 338 kts | 49° |
| 2026-05-07 07:55 | 33.27589 | -118.54311 | 15470 ft | 337 kts | 49° |
| 2026-05-07 07:55 | 33.29088 | -118.52203 | 15380 ft | 337 kts | 49° |
| 2026-05-07 07:56 | 33.30602 | -118.50071 | 15288 ft | 336 kts | 49° |
| 2026-05-07 07:56 | 33.32136 | -118.47912 | 15215 ft | 336 kts | 50° |
| 2026-05-07 07:56 | 33.33420 | -118.45634 | 15123 ft | 336 kts | 64° |
| 2026-05-07 07:56 | 33.34058 | -118.42947 | 15036 ft | 339 kts | 82° |
| 2026-05-07 07:57 | 33.34013 | -118.40132 | 14953 ft | 340 kts | 93° |
| 2026-05-07 07:57 | 33.33832 | -118.37312 | 14857 ft | 339 kts | 92° |
| 2026-05-07 07:57 | 33.33674 | -118.34510 | 14776 ft | 337 kts | 91° |
| 2026-05-07 07:57 | 33.33523 | -118.31716 | 14686 ft | 336 kts | 91° |
| 2026-05-07 07:58 | 33.33370 | -118.28925 | 14601 ft | 336 kts | 91° |
| 2026-05-07 07:58 | 33.33216 | -118.26138 | 14504 ft | 335 kts | 92° |
| 2026-05-07 07:58 | 33.33059 | -118.23355 | 14406 ft | 334 kts | 91° |
| 2026-05-07 07:58 | 33.32903 | -118.20585 | 14318 ft | 333 kts | 92° |
| 2026-05-07 07:59 | 33.32746 | -118.17823 | 14232 ft | 333 kts | 92° |
| 2026-05-07 07:59 | 33.32588 | -118.15062 | 14142 ft | 333 kts | 92° |
| 2026-05-07 07:59 | 33.32475 | -118.12308 | 14036 ft | 331 kts | 85° |
| 2026-05-07 07:59 | 33.32984 | -118.09657 | 13953 ft | 328 kts | 66° |
| 2026-05-07 08:00 | 33.34207 | -118.07372 | 13577 ft | 328 kts | 48° |
| 2026-05-07 08:00 | 33.35803 | -118.05430 | 13167 ft | 324 kts | 46° |
| 2026-05-07 08:00 | 33.37373 | -118.03519 | 12585 ft | 321 kts | 46° |
| 2026-05-07 08:00 | 33.38919 | -118.01631 | 12325 ft | 315 kts | 44° |
| 2026-05-07 08:01 | 33.40765 | -118.00208 | 11972 ft | 321 kts | 24° |
| 2026-05-07 08:01 | 33.42969 | -117.99736 | 11597 ft | 326 kts | 2° |
| 2026-05-07 08:01 | 33.45236 | -117.99872 | 11223 ft | 325 kts | 0° |
| 2026-05-07 08:01 | 33.47488 | -117.99999 | 10850 ft | 323 kts | 1° |
| 2026-05-07 08:02 | 33.49733 | -118.00112 | 10475 ft | 322 kts | 1° |
| 2026-05-07 08:02 | 33.51958 | -118.00218 | 10201 ft | 317 kts | 1° |
| 2026-05-07 08:02 | 33.54104 | -118.00323 | 10053 ft | 301 kts | 1° |
| 2026-05-07 08:02 | 33.56120 | -118.00423 | 9776 ft | 286 kts | 1° |
| 2026-05-07 08:03 | 33.58108 | -118.00516 | 9237 ft | 285 kts | 1° |
| 2026-05-07 08:03 | 33.60082 | -118.00604 | 8834 ft | 284 kts | 1° |
| 2026-05-07 08:03 | 33.62048 | -118.00688 | 8298 ft | 281 kts | 0° |
| 2026-05-07 08:03 | 33.63984 | -118.00779 | 8082 ft | 277 kts | 357° |
| 2026-05-07 08:04 | 33.65895 | -118.01158 | 7891 ft | 279 kts | 346° |
| 2026-05-07 08:04 | 33.67734 | -118.01826 | 7844 ft | 273 kts | 345° |
| 2026-05-07 08:04 | 33.69519 | -118.02453 | 7739 ft | 262 kts | 346° |
| 2026-05-07 08:04 | 33.71216 | -118.03036 | 7620 ft | 246 kts | 346° |
| 2026-05-07 08:05 | 33.72817 | -118.03583 | 7375 ft | 235 kts | 346° |
| 2026-05-07 08:05 | 33.74373 | -118.04115 | 7227 ft | 230 kts | 346° |
| 2026-05-07 08:05 | 33.75923 | -118.04645 | 7146 ft | 233 kts | 346° |
| 2026-05-07 08:05 | 33.77482 | -118.05180 | 7016 ft | 232 kts | 345° |
| 2026-05-07 08:06 | 33.79008 | -118.05774 | 6853 ft | 229 kts | 339° |
| 2026-05-07 08:06 | 33.80483 | -118.06497 | 6610 ft | 229 kts | 339° |
| 2026-05-07 08:06 | 33.81956 | -118.07211 | 6376 ft | 227 kts | 339° |
| 2026-05-07 08:06 | 33.83414 | -118.07911 | 6162 ft | 225 kts | 339° |
| 2026-05-07 08:07 | 33.84868 | -118.08608 | 5889 ft | 225 kts | 338° |
| 2026-05-07 08:07 | 33.86331 | -118.09310 | 5630 ft | 225 kts | 338° |
| 2026-05-07 08:07 | 33.87779 | -118.10005 | 5412 ft | 223 kts | 338° |
| 2026-05-07 08:07 | 33.89210 | -118.10701 | 5202 ft | 222 kts | 335° |
| 2026-05-07 08:08 | 33.90560 | -118.11588 | 4968 ft | 220 kts | 330° |
| 2026-05-07 08:08 | 33.91892 | -118.12497 | 4739 ft | 219 kts | 330° |
| 2026-05-07 08:08 | 33.93226 | -118.13395 | 4463 ft | 220 kts | 330° |
| 2026-05-07 08:08 | 33.94563 | -118.14293 | 4205 ft | 220 kts | 329° |
| 2026-05-07 08:09 | 33.95672 | -118.15536 | 3915 ft | 221 kts | 297° |
| 2026-05-07 08:09 | 33.96022 | -118.17276 | 3800 ft | 214 kts | 272° |
| 2026-05-07 08:09 | 33.95951 | -118.19022 | 3696 ft | 202 kts | 264° |
| 2026-05-07 08:09 | 33.95766 | -118.20636 | 3617 ft | 190 kts | 263° |
| 2026-05-07 08:10 | 33.95617 | -118.22129 | 3303 ft | 173 kts | 264° |
| 2026-05-07 08:10 | 33.95470 | -118.23530 | 2834 ft | 162 kts | 263° |
| 2026-05-07 08:10 | 33.95340 | -118.24819 | 2451 ft | 153 kts | 263° |
| 2026-05-07 08:10 | 33.95213 | -118.26047 | 2142 ft | 143 kts | 263° |
| 2026-05-07 08:11 | 33.95092 | -118.27225 | 1922 ft | 141 kts | 263° |
| 2026-05-07 08:11 | 33.94972 | -118.28393 | 1743 ft | 140 kts | 263° |
| 2026-05-07 08:11 | 33.94853 | -118.29555 | 1556 ft | 139 kts | 263° |
| 2026-05-07 08:11 | 33.94735 | -118.30710 | 1371 ft | 139 kts | 262° |
| 2026-05-07 08:12 | 33.94619 | -118.31836 | 1183 ft | 137 kts | 262° |
| 2026-05-07 08:12 | 33.94503 | -118.32970 | 1006 ft | 135 kts | 263° |
| 2026-05-07 08:12 | 33.94389 | -118.34086 | 822 ft | 134 kts | 263° |
| 2026-05-07 08:12 | 33.94275 | -118.35191 | 644 ft | 133 kts | 263° |
| 2026-05-07 08:13 | 33.94163 | -118.36287 | 467 ft | 132 kts | 263° |
| 2026-05-07 08:13 | 33.94050 | -118.37389 | 292 ft | 132 kts | 262° |
| 2026-05-07 08:13 | 33.93938 | -118.38474 | 119 ft | 129 kts | 262° |
| 2026-05-07 08:13 | 33.93842 | -118.39412 | 100 ft | 92 kts | 263° |
| 2026-05-07 08:14 | 33.93778 | -118.40032 | 104 ft | 60 kts | 263° |
| 2026-05-07 08:14 | 33.93735 | -118.40454 | 102 ft | 43 kts | 263° |
| 2026-05-07 08:14 | 33.93702 | -118.40773 | 101 ft | 34 kts | 263° |
| 2026-05-07 08:14 | 33.93676 | -118.41031 | 102 ft | 26 kts | 263° |
| 2026-05-07 08:15 | 33.93665 | -118.41132 | 103 ft | 11 kts | 263° |
| 2026-05-07 08:15 | 33.93659 | -118.41216 | 101 ft | 9 kts | 279° |
| 2026-05-07 08:15 | 33.93698 | -118.41274 | 104 ft | 11 kts | 339° |
| 2026-05-07 08:15 | 33.93748 | -118.41246 | 102 ft | 5 kts | 78° |
| 2026-05-07 08:16 | 33.93749 | -118.41245 | 102 ft | 0 kts | 79° |
| 2026-05-07 08:16 | 33.93752 | -118.41222 | 103 ft | 7 kts | 79° |
| 2026-05-07 08:16 | 33.93762 | -118.41176 | 100 ft | 9 kts | 58° |
| 2026-05-07 08:16 | 33.93841 | -118.41157 | 100 ft | 7 kts | 352° |
| 2026-05-07 08:17 | 33.93861 | -118.41161 | 100 ft | 4 kts | 352° |
| 2026-05-07 08:17 | 33.93909 | -118.41169 | 99 ft | 10 kts | 352° |
| 2026-05-07 08:17 | 33.93977 | -118.41180 | 99 ft | 0 kts | 352° |
| 2026-05-07 08:17 | 33.93988 | -118.41182 | 99 ft | 2 kts | 357° |
| 2026-05-07 08:18 | 33.93994 | -118.41182 | 99 ft | 1 kts | 20° |
| 2026-05-07 08:18 | 33.93999 | -118.41179 | 99 ft | 1 kts | 42° |
| 2026-05-07 08:18 | 33.94014 | -118.41158 | 99 ft | 2 kts | 67° |
| 2026-05-07 08:18 | 33.94016 | -118.41146 | 100 ft | 4 kts | 92° |
| 2026-05-07 08:19 | 33.94016 | -118.41121 | 100 ft | 0 kts | 83° |
| 2026-05-07 08:19 | 33.94018 | -118.41102 | 99 ft | 3 kts | 83° |
| 2026-05-07 08:19 | 33.94020 | -118.41085 | 99 ft | 2 kts | 83° |
| 2026-05-07 08:19 | 33.94020 | -118.41078 | 99 ft | 0 kts | 83° |